SJV250 WAAA-WAEE
Flight info
| Callsign | SJV250 |
|---|---|
| Flight time | 1h 32m |
| Altitude | 37000 |
| Route | KENDO A450 TALIA DCT IRSET |
| Aircraft | A320/M-SDE3FGHIRWY/LB1 |
Departure
| Time | 2026-04-24 22:58 |
|---|---|
| Airport | Sultan Hasanuddin International Airport (WAAA) |
Arrival
| Time | 2026-04-25 00:31 |
|---|---|
| Airport | Sultan Babullah Airport (WAEE) |
| Time | Latitude | Longitude | Altitude | Speed | Heading |
|---|---|---|---|---|---|
| 2026-04-24 22:30 | -5.07882 | 119.54879 | 41 ft | 0 kts | 120° |
| 2026-04-24 22:47 | -5.07876 | 119.54868 | 41 ft | 4 kts | 123° |
| 2026-04-24 22:47 | -5.07860 | 119.54846 | 39 ft | 4 kts | 135° |
| 2026-04-24 22:47 | -5.07839 | 119.54831 | 41 ft | 4 kts | 172° |
| 2026-04-24 22:48 | -5.07825 | 119.54832 | 37 ft | 0 kts | 210° |
| 2026-04-24 22:48 | -5.07831 | 119.54829 | 38 ft | 2 kts | 210° |
| 2026-04-24 22:48 | -5.07835 | 119.54827 | 39 ft | 0 kts | 210° |
| 2026-04-24 22:52 | -5.07855 | 119.54816 | 40 ft | 8 kts | 208° |
| 2026-04-24 22:52 | -5.07889 | 119.54796 | 41 ft | 7 kts | 210° |
| 2026-04-24 22:52 | -5.07945 | 119.54763 | 41 ft | 11 kts | 210° |
| 2026-04-24 22:53 | -5.08019 | 119.54766 | 41 ft | 14 kts | 130° |
| 2026-04-24 22:53 | -5.08064 | 119.54835 | 40 ft | 11 kts | 140° |
| 2026-04-24 22:53 | -5.08146 | 119.54824 | 40 ft | 15 kts | 207° |
| 2026-04-24 22:53 | -5.08247 | 119.54766 | 41 ft | 19 kts | 210° |
| 2026-04-24 22:54 | -5.08336 | 119.54714 | 41 ft | 15 kts | 210° |
| 2026-04-24 22:54 | -5.08433 | 119.54657 | 41 ft | 17 kts | 210° |
| 2026-04-24 22:54 | -5.08548 | 119.54593 | 41 ft | 21 kts | 212° |
| 2026-04-24 22:54 | -5.08625 | 119.54548 | 42 ft | 9 kts | 209° |
| 2026-04-24 22:55 | -5.08689 | 119.54512 | 42 ft | 13 kts | 210° |
| 2026-04-24 22:55 | -5.08779 | 119.54459 | 42 ft | 17 kts | 209° |
| 2026-04-24 22:55 | -5.08884 | 119.54400 | 42 ft | 18 kts | 209° |
| 2026-04-24 22:55 | -5.08972 | 119.54350 | 42 ft | 11 kts | 210° |
| 2026-04-24 22:56 | -5.09051 | 119.54303 | 41 ft | 15 kts | 210° |
| 2026-04-24 22:56 | -5.09135 | 119.54276 | 41 ft | 9 kts | 165° |
| 2026-04-24 22:56 | -5.09176 | 119.54313 | 42 ft | 0 kts | 121° |
| 2026-04-24 22:57 | -5.09179 | 119.54320 | 42 ft | 3 kts | 119° |
| 2026-04-24 22:57 | -5.09196 | 119.54350 | 42 ft | 7 kts | 117° |
| 2026-04-24 22:57 | -5.09211 | 119.54407 | 42 ft | 9 kts | 79° |
| 2026-04-24 22:57 | -5.09160 | 119.54446 | 43 ft | 10 kts | 31° |
| 2026-04-24 22:58 | -5.09089 | 119.54485 | 44 ft | 16 kts | 30° |
| 2026-04-24 22:58 | -5.08765 | 119.54672 | 44 ft | 106 kts | 30° |
| 2026-04-24 22:58 | -5.07861 | 119.55186 | 131 ft | 181 kts | 28° |
| 2026-04-24 22:58 | -5.06754 | 119.55764 | 1200 ft | 190 kts | 21° |
| 2026-04-24 22:59 | -5.05331 | 119.56002 | 2056 ft | 222 kts | 2° |
| 2026-04-24 22:59 | -5.03689 | 119.56005 | 3114 ft | 249 kts | 359° |
| 2026-04-24 22:59 | -5.00037 | 119.55903 | 4972 ft | 273 kts | 0° |
| 2026-04-24 23:00 | -4.98121 | 119.55880 | 6056 ft | 277 kts | 1° |
| 2026-04-24 23:00 | -4.96181 | 119.55868 | 7079 ft | 282 kts | 359° |
| 2026-04-24 23:00 | -4.94218 | 119.55563 | 8063 ft | 288 kts | 350° |
| 2026-04-24 23:00 | -4.92241 | 119.55167 | 9053 ft | 293 kts | 351° |
| 2026-04-24 23:01 | -4.90226 | 119.54772 | 10004 ft | 297 kts | 351° |
| 2026-04-24 23:01 | -4.88140 | 119.54377 | 10568 ft | 316 kts | 353° |
| 2026-04-24 23:01 | -4.85883 | 119.54424 | 10950 ft | 334 kts | 14° |
| 2026-04-24 23:01 | -4.83730 | 119.55320 | 11607 ft | 339 kts | 35° |
| 2026-04-24 23:02 | -4.82019 | 119.56948 | 12374 ft | 342 kts | 56° |
| 2026-04-24 23:02 | -4.81009 | 119.59103 | 13145 ft | 345 kts | 77° |
| 2026-04-24 23:02 | -4.80597 | 119.61484 | 13915 ft | 349 kts | 82° |
| 2026-04-24 23:02 | -4.80231 | 119.63900 | 14602 ft | 353 kts | 82° |
| 2026-04-24 23:03 | -4.79864 | 119.66346 | 15278 ft | 357 kts | 82° |
| 2026-04-24 23:03 | -4.79493 | 119.68817 | 15962 ft | 361 kts | 82° |
| 2026-04-24 23:03 | -4.79116 | 119.71316 | 16651 ft | 365 kts | 83° |
| 2026-04-24 23:03 | -4.79007 | 119.73866 | 17319 ft | 368 kts | 95° |
| 2026-04-24 23:04 | -4.79449 | 119.76400 | 17990 ft | 372 kts | 107° |
| 2026-04-24 23:04 | -4.80438 | 119.78800 | 18579 ft | 375 kts | 119° |
| 2026-04-24 23:04 | -4.81807 | 119.81037 | 19162 ft | 378 kts | 122° |
| 2026-04-24 23:04 | -4.83205 | 119.83283 | 19768 ft | 382 kts | 122° |
| 2026-04-24 23:05 | -4.84615 | 119.85555 | 20336 ft | 386 kts | 122° |
| 2026-04-24 23:05 | -4.86032 | 119.87844 | 20915 ft | 389 kts | 122° |
| 2026-04-24 23:05 | -4.87468 | 119.90163 | 21486 ft | 393 kts | 122° |
| 2026-04-24 23:05 | -4.88734 | 119.92600 | 22034 ft | 397 kts | 111° |
| 2026-04-24 23:06 | -4.89407 | 119.95291 | 22580 ft | 401 kts | 97° |
| 2026-04-24 23:06 | -4.89419 | 119.98100 | 23127 ft | 406 kts | 84° |
| 2026-04-24 23:06 | -4.88751 | 120.00863 | 23628 ft | 411 kts | 70° |
| 2026-04-24 23:06 | -4.87480 | 120.03446 | 24064 ft | 415 kts | 62° |
| 2026-04-24 23:07 | -4.86084 | 120.05990 | 24527 ft | 418 kts | 62° |
| 2026-04-24 23:07 | -4.84679 | 120.08550 | 25003 ft | 420 kts | 62° |
| 2026-04-24 23:07 | -4.83269 | 120.11121 | 25467 ft | 422 kts | 62° |
| 2026-04-24 23:07 | -4.81852 | 120.13710 | 25940 ft | 424 kts | 62° |
| 2026-04-24 23:08 | -4.80428 | 120.16316 | 26389 ft | 427 kts | 62° |
| 2026-04-24 23:08 | -4.79000 | 120.18931 | 26836 ft | 429 kts | 62° |
| 2026-04-24 23:08 | -4.77561 | 120.21563 | 27280 ft | 431 kts | 62° |
| 2026-04-24 23:08 | -4.76111 | 120.24206 | 27716 ft | 434 kts | 62° |
| 2026-04-24 23:09 | -4.74652 | 120.26864 | 28150 ft | 436 kts | 62° |
| 2026-04-24 23:09 | -4.73183 | 120.29534 | 28594 ft | 439 kts | 62° |
| 2026-04-24 23:09 | -4.71710 | 120.32215 | 29052 ft | 441 kts | 62° |
| 2026-04-24 23:09 | -4.70224 | 120.34922 | 29518 ft | 444 kts | 62° |
| 2026-04-24 23:10 | -4.68727 | 120.37646 | 29974 ft | 447 kts | 62° |
| 2026-04-24 23:10 | -4.67224 | 120.40379 | 30365 ft | 449 kts | 62° |
| 2026-04-24 23:10 | -4.65717 | 120.43131 | 30748 ft | 451 kts | 62° |
| 2026-04-24 23:10 | -4.64209 | 120.45896 | 31142 ft | 453 kts | 62° |
| 2026-04-24 23:11 | -4.62689 | 120.48674 | 31541 ft | 455 kts | 62° |
| 2026-04-24 23:11 | -4.61162 | 120.51458 | 31967 ft | 456 kts | 62° |
| 2026-04-24 23:11 | -4.59633 | 120.54239 | 32560 ft | 454 kts | 62° |
| 2026-04-24 23:11 | -4.58114 | 120.56995 | 33204 ft | 450 kts | 62° |
| 2026-04-24 23:12 | -4.56610 | 120.59728 | 33877 ft | 447 kts | 62° |
| 2026-04-24 23:12 | -4.55114 | 120.62448 | 34448 ft | 444 kts | 62° |
| 2026-04-24 23:12 | -4.53631 | 120.65149 | 34972 ft | 442 kts | 62° |
| 2026-04-24 23:12 | -4.52153 | 120.67848 | 35476 ft | 441 kts | 62° |
| 2026-04-24 23:13 | -4.50681 | 120.70537 | 35965 ft | 439 kts | 62° |
| 2026-04-24 23:13 | -4.49210 | 120.73217 | 36449 ft | 438 kts | 61° |
| 2026-04-24 23:13 | -4.47740 | 120.75889 | 36809 ft | 438 kts | 61° |
| 2026-04-24 23:14 | -4.44816 | 120.81219 | 36917 ft | 434 kts | 61° |
| 2026-04-24 23:14 | -4.41912 | 120.86513 | 36915 ft | 433 kts | 61° |
| 2026-04-24 23:15 | -4.39016 | 120.91799 | 36916 ft | 433 kts | 61° |
| 2026-04-24 23:15 | -4.36120 | 120.97079 | 36918 ft | 432 kts | 61° |
| 2026-04-24 23:16 | -4.33226 | 121.02353 | 36917 ft | 432 kts | 61° |
| 2026-04-24 23:16 | -4.30336 | 121.07628 | 36926 ft | 432 kts | 61° |
| 2026-04-24 23:17 | -4.27443 | 121.12903 | 36924 ft | 432 kts | 61° |
| 2026-04-24 23:17 | -4.24547 | 121.18181 | 36928 ft | 432 kts | 61° |
| 2026-04-24 23:18 | -4.21496 | 121.23360 | 36939 ft | 432 kts | 53° |
| 2026-04-24 23:18 | -4.18473 | 121.27347 | 36938 ft | 432 kts | 53° |
| 2026-04-24 23:19 | -4.14838 | 121.32145 | 36950 ft | 432 kts | 53° |
| 2026-04-24 23:19 | -4.11199 | 121.36941 | 36951 ft | 432 kts | 53° |
| 2026-04-24 23:20 | -4.07564 | 121.41737 | 36956 ft | 432 kts | 53° |
| 2026-04-24 23:20 | -4.03928 | 121.46532 | 36955 ft | 432 kts | 53° |
| 2026-04-24 23:21 | -4.00287 | 121.51325 | 36973 ft | 432 kts | 53° |
| 2026-04-24 23:21 | -3.96650 | 121.56119 | 36981 ft | 432 kts | 53° |
| 2026-04-24 23:22 | -3.92993 | 121.60944 | 36979 ft | 432 kts | 53° |
| 2026-04-24 23:22 | -3.89359 | 121.65729 | 36989 ft | 432 kts | 53° |
| 2026-04-24 23:23 | -3.85722 | 121.70512 | 36985 ft | 432 kts | 53° |
| 2026-04-24 23:23 | -3.82090 | 121.75300 | 36979 ft | 432 kts | 53° |
| 2026-04-24 23:24 | -3.78458 | 121.80089 | 36977 ft | 432 kts | 54° |
| 2026-04-24 23:24 | -3.74819 | 121.84877 | 36995 ft | 432 kts | 53° |
| 2026-04-24 23:25 | -3.71178 | 121.89662 | 36989 ft | 432 kts | 54° |
| 2026-04-24 23:25 | -3.67540 | 121.94446 | 36990 ft | 432 kts | 54° |
| 2026-04-24 23:26 | -3.63906 | 121.99235 | 36980 ft | 432 kts | 54° |
| 2026-04-24 23:26 | -3.60267 | 122.04027 | 36982 ft | 432 kts | 54° |
| 2026-04-24 23:27 | -3.56630 | 122.08817 | 36976 ft | 432 kts | 54° |
| 2026-04-24 23:27 | -3.52994 | 122.13605 | 36975 ft | 432 kts | 54° |
| 2026-04-24 23:28 | -3.49352 | 122.18396 | 36967 ft | 432 kts | 54° |
| 2026-04-24 23:28 | -3.45711 | 122.23185 | 36968 ft | 432 kts | 54° |
| 2026-04-24 23:29 | -3.42061 | 122.27974 | 36966 ft | 433 kts | 53° |
| 2026-04-24 23:29 | -3.38414 | 122.32764 | 36961 ft | 433 kts | 54° |
| 2026-04-24 23:30 | -3.34767 | 122.37561 | 36968 ft | 433 kts | 54° |
| 2026-04-24 23:30 | -3.31126 | 122.42352 | 36963 ft | 433 kts | 54° |
| 2026-04-24 23:31 | -3.27556 | 122.47191 | 36962 ft | 432 kts | 59° |
| 2026-04-24 23:31 | -3.24434 | 122.52325 | 36959 ft | 432 kts | 59° |
| 2026-04-24 23:32 | -3.21317 | 122.57456 | 36964 ft | 432 kts | 59° |
| 2026-04-24 23:32 | -3.19050 | 122.62947 | 36947 ft | 430 kts | 82° |
| 2026-04-24 23:32 | -3.18498 | 122.65880 | 36951 ft | 430 kts | 71° |
| 2026-04-24 23:33 | -3.17070 | 122.68493 | 36953 ft | 430 kts | 52° |
| 2026-04-24 23:33 | -3.13002 | 122.72897 | 36947 ft | 431 kts | 48° |
| 2026-04-24 23:34 | -3.09042 | 122.77397 | 36945 ft | 430 kts | 55° |
| 2026-04-24 23:34 | -3.05808 | 122.82431 | 36947 ft | 430 kts | 60° |
| 2026-04-24 23:35 | -3.02844 | 122.87656 | 36944 ft | 438 kts | 61° |
| 2026-04-24 23:35 | -2.99716 | 122.93027 | 36942 ft | 452 kts | 60° |
| 2026-04-24 23:36 | -2.96431 | 122.98411 | 36946 ft | 454 kts | 59° |
| 2026-04-24 23:36 | -2.93111 | 123.03789 | 36945 ft | 454 kts | 59° |
| 2026-04-24 23:37 | -2.89818 | 123.09176 | 36940 ft | 454 kts | 59° |
| 2026-04-24 23:37 | -2.84883 | 123.17275 | 36944 ft | 455 kts | 60° |
| 2026-04-24 23:38 | -2.81595 | 123.22679 | 36947 ft | 455 kts | 60° |
| 2026-04-24 23:38 | -2.78306 | 123.28079 | 36946 ft | 455 kts | 60° |
| 2026-04-24 23:39 | -2.75008 | 123.33479 | 36951 ft | 455 kts | 60° |
| 2026-04-24 23:39 | -2.71715 | 123.38878 | 36951 ft | 455 kts | 60° |
| 2026-04-24 23:40 | -2.68443 | 123.44239 | 36953 ft | 455 kts | 60° |
| 2026-04-24 23:40 | -2.65131 | 123.49675 | 36953 ft | 455 kts | 60° |
| 2026-04-24 23:41 | -2.61865 | 123.55042 | 36952 ft | 455 kts | 60° |
| 2026-04-24 23:41 | -2.58548 | 123.60477 | 36952 ft | 455 kts | 59° |
| 2026-04-24 23:42 | -2.55273 | 123.65837 | 36954 ft | 455 kts | 60° |
| 2026-04-24 23:42 | -2.51982 | 123.71233 | 36953 ft | 455 kts | 60° |
| 2026-04-24 23:43 | -2.48668 | 123.76669 | 36947 ft | 455 kts | 60° |
| 2026-04-24 23:43 | -2.45377 | 123.82067 | 36949 ft | 455 kts | 60° |
| 2026-04-24 23:44 | -2.42080 | 123.87465 | 36952 ft | 455 kts | 60° |
| 2026-04-24 23:44 | -2.38813 | 123.92798 | 36950 ft | 455 kts | 60° |
| 2026-04-24 23:45 | -2.35524 | 123.98197 | 36954 ft | 454 kts | 60° |
| 2026-04-24 23:45 | -2.32258 | 124.03561 | 36954 ft | 454 kts | 60° |
| 2026-04-24 23:46 | -2.28950 | 124.08984 | 36954 ft | 454 kts | 60° |
| 2026-04-24 23:46 | -2.25656 | 124.14368 | 36952 ft | 454 kts | 60° |
| 2026-04-24 23:47 | -2.22361 | 124.19748 | 36953 ft | 454 kts | 60° |
| 2026-04-24 23:47 | -2.19065 | 124.25132 | 36954 ft | 453 kts | 60° |
| 2026-04-24 23:48 | -2.15783 | 124.30514 | 36954 ft | 453 kts | 60° |
| 2026-04-24 23:48 | -2.12523 | 124.35858 | 36961 ft | 453 kts | 60° |
| 2026-04-24 23:49 | -2.09247 | 124.41235 | 36960 ft | 453 kts | 60° |
| 2026-04-24 23:49 | -2.05961 | 124.46612 | 36962 ft | 453 kts | 60° |
| 2026-04-24 23:50 | -2.02668 | 124.51989 | 36958 ft | 453 kts | 60° |
| 2026-04-24 23:50 | -1.99380 | 124.57362 | 36966 ft | 453 kts | 60° |
| 2026-04-24 23:51 | -1.96095 | 124.62741 | 36965 ft | 453 kts | 60° |
| 2026-04-24 23:51 | -1.92809 | 124.68112 | 36967 ft | 453 kts | 60° |
| 2026-04-24 23:52 | -1.88816 | 124.72994 | 36967 ft | 456 kts | 48° |
| 2026-04-24 23:52 | -1.84431 | 124.77575 | 36968 ft | 456 kts | 48° |
| 2026-04-24 23:53 | -1.80051 | 124.82164 | 36965 ft | 456 kts | 48° |
| 2026-04-24 23:53 | -1.75678 | 124.86754 | 36966 ft | 456 kts | 48° |
| 2026-04-24 23:54 | -1.71297 | 124.91348 | 36966 ft | 456 kts | 48° |
| 2026-04-24 23:54 | -1.66925 | 124.95943 | 36966 ft | 456 kts | 48° |
| 2026-04-24 23:55 | -1.62552 | 125.00538 | 36967 ft | 456 kts | 48° |
| 2026-04-24 23:55 | -1.58169 | 125.05129 | 36962 ft | 457 kts | 48° |
| 2026-04-24 23:56 | -1.53777 | 125.09716 | 36961 ft | 457 kts | 48° |
| 2026-04-24 23:56 | -1.49390 | 125.14312 | 36958 ft | 457 kts | 48° |
| 2026-04-24 23:57 | -1.45053 | 125.18871 | 36949 ft | 442 kts | 48° |
| 2026-04-24 23:57 | -1.40857 | 125.23265 | 36952 ft | 434 kts | 48° |
| 2026-04-24 23:58 | -1.37399 | 125.26893 | 36951 ft | 434 kts | 49° |
| 2026-04-24 23:58 | -1.33231 | 125.31262 | 36951 ft | 434 kts | 48° |
| 2026-04-24 23:59 | -1.29060 | 125.35628 | 36953 ft | 434 kts | 49° |
| 2026-04-24 23:59 | -1.24890 | 125.40000 | 36956 ft | 434 kts | 49° |
| 2026-04-25 00:00 | -1.20715 | 125.44372 | 36951 ft | 435 kts | 48° |
| 2026-04-25 00:00 | -1.16535 | 125.48754 | 36959 ft | 436 kts | 49° |
| 2026-04-25 00:01 | -1.12354 | 125.53138 | 36958 ft | 436 kts | 48° |
| 2026-04-25 00:01 | -1.08170 | 125.57523 | 36959 ft | 437 kts | 48° |
| 2026-04-25 00:02 | -1.03977 | 125.61924 | 36961 ft | 437 kts | 49° |
| 2026-04-25 00:02 | -0.99788 | 125.66321 | 36964 ft | 437 kts | 48° |
| 2026-04-25 00:03 | -0.95610 | 125.70683 | 36960 ft | 437 kts | 48° |
| 2026-04-25 00:03 | -0.91407 | 125.75076 | 36959 ft | 437 kts | 48° |
| 2026-04-25 00:04 | -0.87207 | 125.79476 | 36960 ft | 437 kts | 48° |
| 2026-04-25 00:04 | -0.83011 | 125.83877 | 36960 ft | 438 kts | 48° |
| 2026-04-25 00:05 | -0.78816 | 125.88280 | 36960 ft | 438 kts | 48° |
| 2026-04-25 00:05 | -0.74589 | 125.92718 | 36961 ft | 438 kts | 48° |
| 2026-04-25 00:06 | -0.70416 | 125.97087 | 36962 ft | 438 kts | 48° |
| 2026-04-25 00:06 | -0.66176 | 126.01510 | 36963 ft | 438 kts | 48° |
| 2026-04-25 00:07 | -0.62001 | 126.05884 | 36963 ft | 438 kts | 48° |
| 2026-04-25 00:07 | -0.57774 | 126.10320 | 36962 ft | 438 kts | 48° |
| 2026-04-25 00:08 | -0.53574 | 126.14723 | 36963 ft | 438 kts | 48° |
| 2026-04-25 00:08 | -0.49391 | 126.19145 | 36959 ft | 437 kts | 52° |
| 2026-04-25 00:09 | -0.45692 | 126.23956 | 36962 ft | 436 kts | 54° |
| 2026-04-25 00:09 | -0.42014 | 126.28780 | 36958 ft | 437 kts | 54° |
| 2026-04-25 00:10 | -0.38336 | 126.33608 | 36960 ft | 437 kts | 54° |
| 2026-04-25 00:10 | -0.34659 | 126.38439 | 36953 ft | 437 kts | 54° |
| 2026-04-25 00:11 | -0.30971 | 126.43277 | 36501 ft | 440 kts | 54° |
| 2026-04-25 00:11 | -0.29093 | 126.45740 | 35296 ft | 452 kts | 54° |
| 2026-04-25 00:11 | -0.27166 | 126.48268 | 34243 ft | 462 kts | 54° |
| 2026-04-25 00:12 | -0.25208 | 126.50836 | 33181 ft | 467 kts | 55° |
| 2026-04-25 00:12 | -0.23232 | 126.53422 | 32331 ft | 467 kts | 54° |
| 2026-04-25 00:12 | -0.21280 | 126.55978 | 31374 ft | 457 kts | 54° |
| 2026-04-25 00:12 | -0.19363 | 126.58486 | 30205 ft | 450 kts | 54° |
| 2026-04-25 00:13 | -0.17503 | 126.60929 | 29466 ft | 432 kts | 54° |
| 2026-04-25 00:13 | -0.15719 | 126.63274 | 28903 ft | 419 kts | 54° |
| 2026-04-25 00:13 | -0.13965 | 126.65580 | 28308 ft | 415 kts | 54° |
| 2026-04-25 00:13 | -0.12230 | 126.67860 | 27729 ft | 411 kts | 54° |
| 2026-04-25 00:14 | -0.10511 | 126.70118 | 27163 ft | 407 kts | 54° |
| 2026-04-25 00:14 | -0.08804 | 126.72358 | 26616 ft | 404 kts | 54° |
| 2026-04-25 00:14 | -0.07107 | 126.74584 | 26079 ft | 401 kts | 54° |
| 2026-04-25 00:14 | -0.05425 | 126.76791 | 25558 ft | 398 kts | 54° |
| 2026-04-25 00:15 | -0.03754 | 126.78985 | 25055 ft | 396 kts | 54° |
| 2026-04-25 00:15 | -0.02092 | 126.81167 | 24554 ft | 394 kts | 54° |
| 2026-04-25 00:15 | -0.00438 | 126.83338 | 24059 ft | 392 kts | 54° |
| 2026-04-25 00:15 | 0.01209 | 126.85500 | 23555 ft | 390 kts | 54° |
| 2026-04-25 00:16 | 0.02847 | 126.87651 | 22987 ft | 387 kts | 54° |
| 2026-04-25 00:16 | 0.04469 | 126.89781 | 22473 ft | 383 kts | 54° |
| 2026-04-25 00:16 | 0.06075 | 126.91887 | 21961 ft | 379 kts | 54° |
| 2026-04-25 00:16 | 0.07667 | 126.93973 | 21429 ft | 376 kts | 54° |
| 2026-04-25 00:17 | 0.09247 | 126.96045 | 20904 ft | 373 kts | 54° |
| 2026-04-25 00:17 | 0.10812 | 126.98096 | 20356 ft | 370 kts | 54° |
| 2026-04-25 00:17 | 0.12368 | 127.00137 | 19813 ft | 368 kts | 54° |
| 2026-04-25 00:17 | 0.13915 | 127.02167 | 19247 ft | 366 kts | 54° |
| 2026-04-25 00:18 | 0.15452 | 127.04187 | 18722 ft | 365 kts | 54° |
| 2026-04-25 00:18 | 0.16990 | 127.06206 | 18130 ft | 365 kts | 54° |
| 2026-04-25 00:18 | 0.18536 | 127.08213 | 17511 ft | 363 kts | 54° |
| 2026-04-25 00:18 | 0.20079 | 127.10198 | 16959 ft | 360 kts | 54° |
| 2026-04-25 00:19 | 0.21610 | 127.12158 | 16408 ft | 357 kts | 54° |
| 2026-04-25 00:19 | 0.23128 | 127.14102 | 15852 ft | 354 kts | 53° |
| 2026-04-25 00:19 | 0.24633 | 127.16035 | 15300 ft | 351 kts | 54° |
| 2026-04-25 00:19 | 0.26124 | 127.17953 | 14752 ft | 348 kts | 53° |
| 2026-04-25 00:20 | 0.27609 | 127.19847 | 14323 ft | 343 kts | 53° |
| 2026-04-25 00:20 | 0.29081 | 127.21705 | 13875 ft | 339 kts | 53° |
| 2026-04-25 00:20 | 0.30539 | 127.23541 | 13397 ft | 335 kts | 53° |
| 2026-04-25 00:20 | 0.31980 | 127.25358 | 12949 ft | 332 kts | 53° |
| 2026-04-25 00:21 | 0.33409 | 127.27160 | 12502 ft | 329 kts | 53° |
| 2026-04-25 00:21 | 0.34823 | 127.28945 | 12084 ft | 327 kts | 53° |
| 2026-04-25 00:21 | 0.36228 | 127.30719 | 11672 ft | 324 kts | 53° |
| 2026-04-25 00:21 | 0.37483 | 127.32566 | 11173 ft | 320 kts | 72° |
| 2026-04-25 00:22 | 0.37794 | 127.34754 | 10756 ft | 317 kts | 85° |
| 2026-04-25 00:22 | 0.38362 | 127.36862 | 10460 ft | 316 kts | 61° |
| 2026-04-25 00:22 | 0.39814 | 127.38469 | 10178 ft | 310 kts | 39° |
| 2026-04-25 00:22 | 0.41479 | 127.39771 | 10050 ft | 298 kts | 39° |
| 2026-04-25 00:23 | 0.43097 | 127.41032 | 9828 ft | 291 kts | 39° |
| 2026-04-25 00:23 | 0.44686 | 127.42268 | 9675 ft | 290 kts | 39° |
| 2026-04-25 00:23 | 0.46266 | 127.43506 | 9371 ft | 287 kts | 41° |
| 2026-04-25 00:23 | 0.47675 | 127.44905 | 9052 ft | 285 kts | 50° |
| 2026-04-25 00:24 | 0.48953 | 127.46404 | 8709 ft | 283 kts | 50° |
| 2026-04-25 00:24 | 0.50231 | 127.47893 | 8348 ft | 281 kts | 50° |
| 2026-04-25 00:24 | 0.51521 | 127.49359 | 7981 ft | 280 kts | 49° |
| 2026-04-25 00:24 | 0.52822 | 127.50807 | 7626 ft | 279 kts | 49° |
| 2026-04-25 00:25 | 0.54144 | 127.52254 | 7265 ft | 278 kts | 48° |
| 2026-04-25 00:25 | 0.55452 | 127.53676 | 6911 ft | 277 kts | 48° |
| 2026-04-25 00:25 | 0.56740 | 127.55070 | 6551 ft | 276 kts | 48° |
| 2026-04-25 00:25 | 0.58200 | 127.56290 | 6200 ft | 275 kts | 26° |
| 2026-04-25 00:26 | 0.60065 | 127.56589 | 5835 ft | 277 kts | 353° |
| 2026-04-25 00:26 | 0.61831 | 127.55778 | 5450 ft | 281 kts | 322° |
| 2026-04-25 00:26 | 0.63282 | 127.54475 | 5082 ft | 280 kts | 318° |
| 2026-04-25 00:26 | 0.64682 | 127.53128 | 4711 ft | 279 kts | 319° |
| 2026-04-25 00:27 | 0.66110 | 127.51863 | 4370 ft | 277 kts | 321° |
| 2026-04-25 00:27 | 0.67602 | 127.50618 | 4033 ft | 275 kts | 322° |
| 2026-04-25 00:27 | 0.69082 | 127.49417 | 3700 ft | 274 kts | 323° |
| 2026-04-25 00:27 | 0.70568 | 127.48226 | 3373 ft | 273 kts | 323° |
| 2026-04-25 00:28 | 0.72050 | 127.47042 | 3002 ft | 272 kts | 322° |
| 2026-04-25 00:28 | 0.73480 | 127.45897 | 2589 ft | 261 kts | 322° |
| 2026-04-25 00:28 | 0.74865 | 127.44785 | 2183 ft | 249 kts | 322° |
| 2026-04-25 00:28 | 0.76181 | 127.43727 | 1813 ft | 237 kts | 322° |
| 2026-04-25 00:29 | 0.77439 | 127.42718 | 1433 ft | 226 kts | 322° |
| 2026-04-25 00:29 | 0.78617 | 127.41772 | 1112 ft | 206 kts | 322° |
| 2026-04-25 00:29 | 0.79657 | 127.40934 | 843 ft | 178 kts | 321° |
| 2026-04-25 00:29 | 0.80562 | 127.40185 | 723 ft | 164 kts | 321° |
| 2026-04-25 00:30 | 0.81410 | 127.39487 | 458 ft | 150 kts | 324° |
| 2026-04-25 00:30 | 0.82207 | 127.38885 | 158 ft | 137 kts | 322° |
| 2026-04-25 00:30 | 0.82908 | 127.38331 | 81 ft | 110 kts | 321° |
| 2026-04-25 00:30 | 0.83375 | 127.37955 | 86 ft | 56 kts | 321° |
| 2026-04-25 00:31 | 0.83446 | 127.37872 | 88 ft | 7 kts | 255° |
| 2026-04-25 00:31 | 0.83424 | 127.37839 | 88 ft | 0 kts | 228° |
| 2026-04-25 00:32 | 0.83415 | 127.37829 | 88 ft | 3 kts | 228° |
| 2026-04-25 00:32 | 0.83406 | 127.37819 | 89 ft | 3 kts | 228° |
| 2026-04-25 00:33 | 0.83395 | 127.37781 | 88 ft | 4 kts | 297° |
| 2026-04-25 00:33 | 0.83421 | 127.37755 | 85 ft | 6 kts | 321° |
| 2026-04-25 00:33 | 0.83427 | 127.37741 | 85 ft | 2 kts | 280° |
| 2026-04-25 00:33 | 0.83422 | 127.37727 | 85 ft | 0 kts | 238° |
| 2026-04-25 00:34 | 0.83413 | 127.37714 | 87 ft | 3 kts | 237° |
| 2026-04-25 00:34 | 0.83404 | 127.37703 | 91 ft | 3 kts | 230° |
| 2026-04-25 00:41 | 0.81450 | 127.39456 | 436 ft | 149 kts | 324° |
| 2026-04-25 00:41 | 0.82253 | 127.38848 | 145 ft | 137 kts | 322° |
| 2026-04-25 00:41 | 0.82942 | 127.38303 | 79 ft | 106 kts | 321° |
| 2026-04-25 00:42 | 0.83389 | 127.37943 | 85 ft | 51 kts | 321° |
| 2026-04-25 00:42 | 0.83448 | 127.37879 | 85 ft | 6 kts | 265° |
| 2026-04-25 00:42 | 0.83424 | 127.37839 | 85 ft | 1 kts | 228° |
| 2026-04-25 00:42 | 0.81546 | 127.39386 | 389 ft | 148 kts | 324° |
| 2026-04-25 00:43 | 0.82327 | 127.38789 | 121 ft | 136 kts | 322° |
| 2026-04-25 00:43 | 0.83000 | 127.38257 | 81 ft | 101 kts | 320° |
| 2026-04-25 00:43 | 0.83417 | 127.37922 | 86 ft | 37 kts | 321° |
| 2026-04-25 00:43 | 0.83424 | 127.37839 | 89 ft | 0 kts | 228° |